LWSK/SKP METAR and TAF weather

Enter ICAO airport designator
Station Type Date Time Source
LWSK METAR 2021/03/05 06:30 UTC NOAA

LWSK 050630Z 00000KT CAVOK 01/M02 Q1019 NOSIG


Station Type Date Time Source
LWSK Decoded METAR 2021/03/05 06:30 UTC NOAA

Skopje-Petrovec, Macedonia, The Republic of (LWSK) 41-58N 021-39E 239M
Mar 05, 2021 - 01:30 AM EST / 2021.03.05 0630 UTC
Wind: Calm:0
Visibility: greater than 7 mile(s):0
Temperature: 33 F (1 C)
Dew Point: 28 F (-2 C)
Relative Humidity: 80%
Pressure (altimeter): 30.09 in. Hg (1019 hPa)
ob: LWSK 050630Z 00000KT CAVOK 01/M02 Q1019 NOSIG
cycle: 6

Station Type Date Time Source
LWSK TAF 2021/03/05 03:13 UTC NOAA

TAF LWSK 050230Z 0503/0603 VRB02KT CAVOK

Example: see airport list